Time;durP1;ratioP1;P1;durP2;ratioP2;P2;SDS_P1;SDS_P2;PMS_P1;PMS_P2;Temp;Humidity;BMP_temperature;BMP_pressure;BME280_temperature;BME280_humidity;BME280_pressure;Samples;Min_cycle;Max_cycle;Signal;HPM_P1;HPM_P2
2023/11/23 00:01:44;;;;;;;1.48;1.38;;;;;;;;;;10538105;28;20068;-74
2023/11/23 00:06:47;;;;;;;1.95;1.65;;;;;;;;;;10538147;28;20065;-73
2023/11/23 00:11:50;;;;;;;2.30;1.75;;;;;;;;;;10527014;28;20135;-73
2023/11/23 00:16:55;;;;;;;2.10;1.55;;;;;;;;;;10531564;28;20117;-73
2023/11/23 00:21:58;;;;;;;2.95;1.85;;;;;;;;;;10537519;28;20078;-73
2023/11/23 00:27:01;;;;;;;2.30;1.92;;;;;;;;;;10550891;28;20124;-73
2023/11/23 00:32:07;;;;;;;2.65;1.80;;;;;;;;;;10548448;28;20043;-73
2023/11/23 00:37:10;;;;;;;2.50;1.70;;;;;;;;;;10537581;28;20040;-73
2023/11/23 00:42:13;;;;;;;4.60;2.22;;;;;;;;;;10541225;28;20075;-73
2023/11/23 00:47:19;;;;;;;4.13;2.38;;;;;;;;;;10526123;28;20082;-73
2023/11/23 00:52:22;;;;;;;4.13;2.75;;;;;;;;;;10523845;28;20109;-73
2023/11/23 00:57:26;;;;;;;5.15;2.95;;;;;;;;;;10516787;28;20366;-73
2023/11/23 01:02:30;;;;;;;4.97;2.83;;;;;;;;;;10523796;28;20123;-73
2023/11/23 01:07:34;;;;;;;4.68;2.72;;;;;;;;;;10541825;28;20034;-73
2023/11/23 01:12:38;;;;;;;3.08;2.05;;;;;;;;;;10526511;28;20055;-73
2023/11/23 01:17:43;;;;;;;3.67;2.03;;;;;;;;;;10527996;28;20067;-73
2023/11/23 01:22:47;;;;;;;2.85;2.13;;;;;;;;;;10536356;28;20048;-73
2023/11/23 01:27:50;;;;;;;1.90;1.70;;;;;;;;;;10536799;28;20032;-73
2023/11/23 01:32:56;;;;;;;2.70;1.83;;;;;;;;;;10538254;28;20111;-73
2023/11/23 01:38:01;;;;;;;;;;;;;;;;;;10538275;28;20036;-73
2023/11/23 01:43:07;;;;;;;2.80;1.80;;;;;;;;;;10525552;28;19966;-73
2023/11/23 01:48:12;;;;;;;2.47;1.90;;;;;;;;;;10531406;28;20079;-73
2023/11/23 01:53:17;;;;;;;2.20;1.77;;;;;;;;;;10535115;28;20047;-73
2023/11/23 01:58:21;;;;;;;2.78;1.80;;;;;;;;;;10539351;28;20123;-73
2023/11/23 02:03:26;;;;;;;1.70;1.50;;;;;;;;;;10531493;28;20047;-73
2023/11/23 02:08:30;;;;;;;2.63;1.58;;;;;;;;;;10514782;28;20438;-73
2023/11/23 02:13:34;;;;;;;4.45;1.90;;;;;;;;;;10534335;28;20078;-73
2023/11/23 02:18:39;;;;;;;2.72;1.92;;;;;;;;;;10535877;28;20034;-73
2023/11/23 02:23:42;;;;;;;2.22;1.63;;;;;;;;;;10540181;28;20044;-73
2023/11/23 02:28:47;;;;;;;2.55;1.88;;;;;;;;;;10537458;28;20068;-73
2023/11/23 02:33:51;;;;;;;2.13;1.65;;;;;;;;;;10534850;28;20119;-73
2023/11/23 02:38:54;;;;;;;1.80;1.58;;;;;;;;;;10539147;28;20081;-73
2023/11/23 02:43:59;;;;;;;2.42;1.83;;;;;;;;;;10539085;28;20059;-73
2023/11/23 02:49:03;;;;;;;3.47;1.50;;;;;;;;;;10544575;28;20122;-73
2023/11/23 02:54:06;;;;;;;3.22;2.10;;;;;;;;;;10542608;28;20123;-73
2023/11/23 02:59:11;;;;;;;3.08;2.13;;;;;;;;;;10526307;28;20505;-73
2023/11/23 03:04:15;;;;;;;2.40;1.70;;;;;;;;;;10540014;28;20075;-73
2023/11/23 03:09:19;;;;;;;2.55;1.70;;;;;;;;;;10516537;28;20047;-73
2023/11/23 03:14:24;;;;;;;2.78;1.60;;;;;;;;;;10523787;28;20040;-73
2023/11/23 03:19:27;;;;;;;2.15;1.80;;;;;;;;;;10524256;28;20132;-73
2023/11/23 03:24:31;;;;;;;2.65;1.55;;;;;;;;;;10534439;28;20123;-73
2023/11/23 03:29:36;;;;;;;2.15;1.80;;;;;;;;;;10521572;28;20066;-73
2023/11/23 03:34:39;;;;;;;2.97;1.67;;;;;;;;;;10542866;28;20036;-73
2023/11/23 03:39:43;;;;;;;2.10;1.42;;;;;;;;;;10519952;28;20033;-73
2023/11/23 03:44:47;;;;;;;3.90;1.33;;;;;;;;;;10534486;28;20130;-73
2023/11/23 03:49:51;;;;;;;3.20;1.80;;;;;;;;;;10527349;28;20647;-73
2023/11/23 03:54:55;;;;;;;2.08;1.48;;;;;;;;;;10558480;22;20131;-73
2023/11/23 04:00:00;;;;;;;3.85;1.77;;;;;;;;;;10488472;28;20047;-74
2023/11/23 04:05:08;;;;;;;1.90;1.60;;;;;;;;;;10462570;28;20073;-75
2023/11/23 04:10:12;;;;;;;2.22;1.58;;;;;;;;;;10439386;28;20045;-74
2023/11/23 04:15:16;;;;;;;2.35;1.65;;;;;;;;;;10448999;28;20047;-74
2023/11/23 04:20:20;;;;;;;2.20;1.73;;;;;;;;;;10425976;28;20401;-74
2023/11/23 04:25:23;;;;;;;2.67;1.90;;;;;;;;;;10427519;28;20133;-75
2023/11/23 04:30:28;;;;;;;2.97;2.05;;;;;;;;;;10422077;28;20042;-74
2023/11/23 04:35:32;;;;;;;3.50;2.45;;;;;;;;;;10442535;28;20133;-74
2023/11/23 04:40:35;;;;;;;5.55;3.33;;;;;;;;;;10436268;28;20049;-74
2023/11/23 04:45:40;;;;;;;4.32;2.92;;;;;;;;;;10444272;28;20045;-74
2023/11/23 04:50:44;;;;;;;4.32;2.80;;;;;;;;;;10444627;28;20040;-74
2023/11/23 04:55:47;;;;;;;3.58;2.40;;;;;;;;;;10433206;28;20049;-74
2023/11/23 05:00:51;;;;;;;3.45;2.28;;;;;;;;;;10443882;28;20041;-74
2023/11/23 05:05:55;;;;;;;2.15;1.88;;;;;;;;;;10436285;28;20045;-74
2023/11/23 05:10:58;;;;;;;2.25;1.80;;;;;;;;;;10451559;28;20517;-74
2023/11/23 05:16:03;;;;;;;3.78;2.05;;;;;;;;;;10450622;28;20393;-74
2023/11/23 05:21:06;;;;;;;3.65;2.47;;;;;;;;;;10446935;28;20041;-75
2023/11/23 05:26:09;;;;;;;4.47;2.45;;;;;;;;;;10452955;28;20116;-74
2023/11/23 05:31:14;;;;;;;4.82;2.80;;;;;;;;;;10455300;28;20040;-74
2023/11/23 05:36:18;;;;;;;4.03;2.67;;;;;;;;;;10439726;28;20057;-75
2023/11/23 05:41:21;;;;;;;4.40;2.47;;;;;;;;;;10447307;28;20073;-74
2023/11/23 05:46:26;;;;;;;4.03;2.47;;;;;;;;;;10451665;28;20036;-74
2023/11/23 05:51:29;;;;;;;4.00;2.88;;;;;;;;;;10447510;28;20033;-74
2023/11/23 05:56:33;;;;;;;3.88;2.55;;;;;;;;;;10443918;28;20037;-74
2023/11/23 06:01:38;;;;;;;3.35;2.40;;;;;;;;;;10469368;28;20397;-74
2023/11/23 06:06:41;;;;;;;2.60;2.08;;;;;;;;;;10447778;28;20119;-74
2023/11/23 06:11:44;;;;;;;3.50;2.10;;;;;;;;;;10452914;28;20127;-74
2023/11/23 06:16:50;;;;;;;2.90;1.88;;;;;;;;;;10443564;28;20513;-74
2023/11/23 06:21:53;;;;;;;2.40;1.93;;;;;;;;;;10432244;28;20033;-74
2023/11/23 06:26:57;;;;;;;3.83;2.45;;;;;;;;;;10430627;28;20036;-74
2023/11/23 06:32:01;;;;;;;2.55;1.92;;;;;;;;;;10450048;28;20129;-74
2023/11/23 06:37:05;;;;;;;4.25;2.70;;;;;;;;;;10445884;28;20040;-74
2023/11/23 06:42:08;;;;;;;3.10;2.40;;;;;;;;;;10448494;28;20332;-75
2023/11/23 06:47:12;;;;;;;4.53;2.78;;;;;;;;;;10454209;28;20091;-74
2023/11/23 06:52:16;;;;;;;4.28;2.55;;;;;;;;;;10443865;28;20053;-74
2023/11/23 06:57:19;;;;;;;4.43;2.70;;;;;;;;;;10432729;28;20529;-74
2023/11/23 07:02:24;;;;;;;3.70;2.42;;;;;;;;;;10452116;28;20120;-74
2023/11/23 07:07:27;;;;;;;2.97;2.33;;;;;;;;;;10456082;28;20091;-74
2023/11/23 07:12:30;;;;;;;3.85;2.78;;;;;;;;;;10443426;28;20045;-74
2023/11/23 07:17:35;;;;;;;5.85;3.13;;;;;;;;;;10455463;28;20077;-74
2023/11/23 07:22:39;;;;;;;5.80;3.63;;;;;;;;;;10439525;28;20048;-74
2023/11/23 07:27:42;;;;;;;4.10;3.03;;;;;;;;;;10433484;28;20056;-74
2023/11/23 07:32:47;;;;;;;4.30;2.70;;;;;;;;;;10450896;28;20048;-74
2023/11/23 07:37:50;;;;;;;5.47;3.45;;;;;;;;;;10448953;28;20070;-74
2023/11/23 07:42:53;;;;;;;4.38;2.92;;;;;;;;;;10442571;28;20131;-74
2023/11/23 07:47:59;;;;;;;3.20;2.50;;;;;;;;;;10437133;28;20047;-74
2023/11/23 07:53:02;;;;;;;3.70;2.80;;;;;;;;;;10454656;28;20040;-74
2023/11/23 07:58:07;;;;;;;3.90;3.08;;;;;;;;;;10442510;28;20056;-74
2023/11/23 08:03:13;;;;;;;4.03;2.95;;;;;;;;;;10449233;28;20108;-74
2023/11/23 08:08:16;;;;;;;5.65;3.92;;;;;;;;;;10448911;28;20120;-74
2023/11/23 08:13:20;;;;;;;4.82;3.30;;;;;;;;;;10446154;28;20049;-74
2023/11/23 08:18:25;;;;;;;5.05;3.58;;;;;;;;;;10442034;28;20512;-74
2023/11/23 08:23:31;;;;;;;5.25;3.30;;;;;;;;;;10433816;28;20048;-74
2023/11/23 08:28:35;;;;;;;4.13;3.08;;;;;;;;;;10446840;28;20401;-74
2023/11/23 08:33:39;;;;;;;4.13;3.30;;;;;;;;;;10447587;28;20655;-74
2023/11/23 08:38:43;;;;;;;4.82;2.95;;;;;;;;;;10442176;28;20055;-74
2023/11/23 08:43:47;;;;;;;4.32;2.72;;;;;;;;;;10442956;28;20513;-75
2023/11/23 08:48:52;;;;;;;3.13;2.30;;;;;;;;;;10443121;28;20047;-74
2023/11/23 08:53:55;;;;;;;6.10;3.25;;;;;;;;;;10446024;28;20150;-74
2023/11/23 08:58:59;;;;;;;3.30;2.45;;;;;;;;;;10439133;28;20504;-74
2023/11/23 09:04:04;;;;;;;3.30;2.38;;;;;;;;;;10450235;28;20499;-74
2023/11/23 09:09:07;;;;;;;2.92;2.20;;;;;;;;;;10449557;28;20052;-74
2023/11/23 09:14:11;;;;;;;4.00;2.75;;;;;;;;;;10451975;28;20045;-74
2023/11/23 09:19:16;;;;;;;2.92;2.40;;;;;;;;;;10454136;28;20069;-74
2023/11/23 09:24:19;;;;;;;4.80;3.53;;;;;;;;;;10443787;28;20091;-74
2023/11/23 09:29:23;;;;;;;4.15;3.00;;;;;;;;;;10444565;28;20073;-74
2023/11/23 09:34:27;;;;;;;3.85;2.60;;;;;;;;;;10448438;28;20049;-74
2023/11/23 09:39:34;;;;;;;3.33;2.58;;;;;;;;;;10456910;28;20059;-74
2023/11/23 09:44:38;;;;;;;4.93;3.10;;;;;;;;;;10448750;28;20099;-74
2023/11/23 09:49:43;;;;;;;4.80;3.60;;;;;;;;;;10448931;28;20072;-74
2023/11/23 09:54:48;;;;;;;6.80;4.82;;;;;;;;;;10448032;28;20059;-75
2023/11/23 09:59:51;;;;;;;6.25;4.53;;;;;;;;;;10448306;28;20045;-74
2023/11/23 10:04:58;;;;;;;7.07;5.13;;;;;;;;;;10442817;28;20051;-74
2023/11/23 10:10:05;;;;;;;5.72;4.03;;;;;;;;;;10455682;28;20570;-74
2023/11/23 10:15:10;;;;;;;5.80;4.05;;;;;;;;;;10448799;28;20435;-74
2023/11/23 10:20:16;;;;;;;7.80;5.10;;;;;;;;;;10447521;28;20045;-74
2023/11/23 10:25:25;;;;;;;6.40;5.23;;;;;;;;;;10441248;28;20409;-74
2023/11/23 10:30:29;;;;;;;8.52;5.65;;;;;;;;;;10443377;28;20152;-74
2023/11/23 10:35:38;;;;;;;10.30;4.70;;;;;;;;;;10444863;28;20041;-74
2023/11/23 10:40:41;;;;;;;8.10;4.90;;;;;;;;;;10447265;28;20398;-74
2023/11/23 10:45:48;;;;;;;7.15;4.82;;;;;;;;;;10452461;28;20040;-74
2023/11/23 10:50:55;;;;;;;6.00;4.45;;;;;;;;;;10454264;28;20121;-74
2023/11/23 10:56:01;;;;;;;7.07;4.65;;;;;;;;;;10450111;28;20386;-74
2023/11/23 11:01:07;;;;;;;4.63;4.05;;;;;;;;;;10451279;28;20053;-74
2023/11/23 11:06:16;;;;;;;6.37;3.77;;;;;;;;;;10445514;28;20119;-74
2023/11/23 11:11:22;;;;;;;5.13;3.80;;;;;;;;;;10447770;28;20099;-74
2023/11/23 11:16:34;;;;;;;7.75;4.53;;;;;;;;;;10452729;28;20036;-74
2023/11/23 11:21:46;;;;;;;7.43;4.55;;;;;;;;;;10440643;28;20420;-74
2023/11/23 11:26:50;;;;;;;5.85;4.28;;;;;;;;;;10445103;28;20042;-74
2023/11/23 11:31:54;;;;;;;8.10;4.50;;;;;;;;;;10446311;28;20048;-74
2023/11/23 11:37:01;;;;;;;5.40;3.72;;;;;;;;;;10444578;28;20049;-74
2023/11/23 11:42:05;;;;;;;8.82;4.00;;;;;;;;;;10446224;28;20041;-74
2023/11/23 11:47:14;;;;;;;6.82;4.10;;;;;;;;;;10440143;28;20045;-74
2023/11/23 11:52:20;;;;;;;6.85;4.25;;;;;;;;;;10435130;28;20041;-74
2023/11/23 11:57:23;;;;;;;5.67;3.43;;;;;;;;;;10435808;28;20056;-74
2023/11/23 12:02:27;;;;;;;4.40;3.25;;;;;;;;;;10448632;28;20067;-74
2023/11/23 12:07:32;;;;;;;5.03;3.17;;;;;;;;;;10442211;28;20040;-74
2023/11/23 12:12:44;;;;;;;4.25;2.75;;;;;;;;;;10434328;28;20025;-74
2023/11/23 12:17:50;;;;;;;4.45;3.22;;;;;;;;;;10443416;28;20043;-74
2023/11/23 12:23:02;;;;;;;3.08;2.47;;;;;;;;;;10451820;28;20040;-74
2023/11/23 12:28:09;;;;;;;4.32;2.80;;;;;;;;;;10458064;28;20059;-74
2023/11/23 12:33:13;;;;;;;6.25;3.10;;;;;;;;;;10443408;28;20040;-74
2023/11/23 12:38:17;;;;;;;4.05;3.15;;;;;;;;;;10459062;28;20075;-74
2023/11/23 12:43:22;;;;;;;4.53;3.35;;;;;;;;;;10439492;28;20490;-74
2023/11/23 12:48:25;;;;;;;5.97;3.53;;;;;;;;;;10453776;28;20550;-74
2023/11/23 12:53:30;;;;;;;6.28;4.03;;;;;;;;;;10445689;28;20053;-73
2023/11/23 12:58:35;;;;;;;6.00;4.38;;;;;;;;;;10441471;28;20056;-74
2023/11/23 13:03:38;;;;;;;5.88;3.65;;;;;;;;;;10442889;28;20049;-74
2023/11/23 13:08:43;;;;;;;5.97;3.50;;;;;;;;;;10437456;28;20129;-74
2023/11/23 13:13:48;;;;;;;7.38;3.80;;;;;;;;;;10437786;28;20401;-73
2023/11/23 13:18:51;;;;;;;5.25;3.60;;;;;;;;;;10433810;28;20041;-74
2023/11/23 13:23:59;;;;;;;6.60;3.92;;;;;;;;;;10432403;28;20037;-73
2023/11/23 13:29:02;;;;;;;6.05;3.45;;;;;;;;;;10434988;28;20037;-73
2023/11/23 13:34:08;;;;;;;5.57;3.72;;;;;;;;;;10437212;28;20053;-74
2023/11/23 13:39:14;;;;;;;5.82;3.92;;;;;;;;;;10444184;28;20053;-74
2023/11/23 13:44:18;;;;;;;6.55;4.13;;;;;;;;;;10439460;28;20048;-73
2023/11/23 13:49:23;;;;;;;9.45;3.78;;;;;;;;;;10450339;28;20051;-74
2023/11/23 13:54:29;;;;;;;6.17;4.50;;;;;;;;;;10437577;28;20493;-74
2023/11/23 13:59:33;;;;;;;5.60;4.43;;;;;;;;;;10437089;28;20080;-73
2023/11/23 14:04:40;;;;;;;8.00;4.50;;;;;;;;;;10440356;28;20120;-74
2023/11/23 14:09:45;;;;;;;8.68;5.43;;;;;;;;;;10444844;28;20397;-74
2023/11/23 14:14:48;;;;;;;7.72;5.15;;;;;;;;;;10434705;28;20036;-74
2023/11/23 14:19:52;;;;;;;8.00;5.00;;;;;;;;;;10439537;28;20468;-74
2023/11/23 14:24:56;;;;;;;6.78;4.53;;;;;;;;;;10442101;28;20045;-74
2023/11/23 14:30:00;;;;;;;7.82;5.03;;;;;;;;;;10439817;28;20037;-74
2023/11/23 14:35:04;;;;;;;7.70;5.53;;;;;;;;;;10440080;28;20383;-74
2023/11/23 14:40:14;;;;;;;9.75;5.65;;;;;;;;;;10442238;28;20054;-74
2023/11/23 14:45:18;;;;;;;7.60;4.68;;;;;;;;;;10433604;28;20413;-74
2023/11/23 14:50:21;;;;;;;7.75;5.07;;;;;;;;;;10437628;28;20425;-74
2023/11/23 14:55:26;;;;;;;7.35;5.03;;;;;;;;;;10437083;28;20239;-74
2023/11/23 15:00:30;;;;;;;8.70;5.57;;;;;;;;;;10453850;28;20484;-74
2023/11/23 15:05:33;;;;;;;8.95;5.50;;;;;;;;;;10437928;28;20049;-74
2023/11/23 15:10:39;;;;;;;8.30;5.53;;;;;;;;;;10439976;28;20055;-74
2023/11/23 15:15:42;;;;;;;8.27;5.00;;;;;;;;;;10446395;28;20112;-74
2023/11/23 15:20:46;;;;;;;8.98;5.68;;;;;;;;;;10437905;28;20090;-74
2023/11/23 15:25:51;;;;;;;11.07;5.38;;;;;;;;;;10444658;28;20122;-74
2023/11/23 15:30:54;;;;;;;8.55;5.43;;;;;;;;;;10445259;28;20055;-74
2023/11/23 15:35:58;;;;;;;6.78;4.25;;;;;;;;;;10442876;28;20513;-74
2023/11/23 15:41:03;;;;;;;9.15;5.63;;;;;;;;;;10444382;28;20670;-74
2023/11/23 15:46:06;;;;;;;7.30;4.97;;;;;;;;;;10441977;28;20055;-74
2023/11/23 15:51:14;;;;;;;7.28;4.97;;;;;;;;;;10438790;28;20049;-74
2023/11/23 15:56:19;;;;;;;9.20;5.88;;;;;;;;;;10438055;28;20099;-74
2023/11/23 16:01:24;;;;;;;8.98;5.75;;;;;;;;;;10448692;28;20127;-74
2023/11/23 16:06:27;;;;;;;9.68;5.63;;;;;;;;;;10437004;28;20072;-74
2023/11/23 16:11:33;;;;;;;10.38;6.40;;;;;;;;;;10442226;28;20083;-74
2023/11/23 16:16:37;;;;;;;10.73;6.18;;;;;;;;;;10435907;28;20652;-74
2023/11/23 16:21:40;;;;;;;10.20;5.88;;;;;;;;;;10432300;28;20116;-74
2023/11/23 16:26:45;;;;;;;8.75;5.53;;;;;;;;;;10427433;28;20044;-74
2023/11/23 16:31:51;;;;;;;11.27;6.68;;;;;;;;;;10440952;28;20120;-74
2023/11/23 16:36:54;;;;;;;11.98;5.82;;;;;;;;;;10445741;28;20063;-74
2023/11/23 16:41:58;;;;;;;9.77;5.68;;;;;;;;;;10445967;28;20068;-73
2023/11/23 16:47:03;;;;;;;6.65;5.10;;;;;;;;;;10446087;28;20120;-74
2023/11/23 16:52:08;;;;;;;10.63;5.93;;;;;;;;;;10446200;28;20129;-74
2023/11/23 16:57:13;;;;;;;10.93;7.03;;;;;;;;;;10454268;28;20067;-74
2023/11/23 17:02:16;;;;;;;7.53;5.15;;;;;;;;;;10443618;28;20037;-74
2023/11/23 17:07:19;;;;;;;10.85;6.72;;;;;;;;;;10449406;28;20087;-74
2023/11/23 17:12:25;;;;;;;7.63;5.10;;;;;;;;;;10452637;28;20044;-74
2023/11/23 17:17:28;;;;;;;11.82;6.40;;;;;;;;;;10447119;28;20106;-74
2023/11/23 17:22:31;;;;;;;14.70;7.63;;;;;;;;;;10456007;28;20045;-74
2023/11/23 17:27:39;;;;;;;9.85;5.85;;;;;;;;;;10462217;28;20127;-74
2023/11/23 17:32:43;;;;;;;9.70;6.22;;;;;;;;;;10451913;28;20075;-74
2023/11/23 17:37:47;;;;;;;8.50;5.25;;;;;;;;;;10451938;28;20102;-74
2023/11/23 17:42:51;;;;;;;8.40;5.13;;;;;;;;;;10456199;28;20041;-74
2023/11/23 17:47:54;;;;;;;5.53;3.45;;;;;;;;;;10446186;28;20068;-74
2023/11/23 17:52:58;;;;;;;9.50;5.20;;;;;;;;;;10440741;28;20036;-73
2023/11/23 17:58:04;;;;;;;7.53;4.13;;;;;;;;;;10447108;28;20094;-74
2023/11/23 18:03:08;;;;;;;5.95;4.20;;;;;;;;;;10440363;28;20126;-74
2023/11/23 18:08:11;;;;;;;4.78;3.45;;;;;;;;;;10447192;28;20080;-74
2023/11/23 18:13:16;;;;;;;7.03;4.70;;;;;;;;;;10446501;28;20035;-74
2023/11/23 18:18:19;;;;;;;7.60;4.72;;;;;;;;;;10457171;28;20051;-74
2023/11/23 18:23:23;;;;;;;6.97;4.50;;;;;;;;;;10447191;28;20052;-74
2023/11/23 18:28:29;;;;;;;7.20;4.22;;;;;;;;;;10448145;28;20071;-74
2023/11/23 18:33:35;;;;;;;7.33;4.70;;;;;;;;;;10444178;28;20112;-74
2023/11/23 18:38:38;;;;;;;8.13;5.40;;;;;;;;;;10441332;28;20155;-74
2023/11/23 18:43:43;;;;;;;7.28;4.45;;;;;;;;;;10538977;22;20105;-74
2023/11/23 18:48:47;;;;;;;8.20;4.90;;;;;;;;;;10562740;27;20063;-74
2023/11/23 18:53:51;;;;;;;7.78;4.85;;;;;;;;;;10549736;27;20032;-74
2023/11/23 18:58:55;;;;;;;7.00;4.80;;;;;;;;;;10568792;27;20146;-74
2023/11/23 19:04:02;;;;;;;4.88;3.88;;;;;;;;;;10551624;27;20040;-74
2023/11/23 19:09:12;;;;;;;8.05;4.57;;;;;;;;;;10567879;27;20470;-74
2023/11/23 19:14:17;;;;;;;7.90;4.22;;;;;;;;;;10567705;27;20051;-74
2023/11/23 19:19:21;;;;;;;5.63;3.65;;;;;;;;;;10579936;27;20526;-73
2023/11/23 19:24:25;;;;;;;6.68;4.10;;;;;;;;;;10548017;27;20036;-74
2023/11/23 19:29:31;;;;;;;7.03;3.60;;;;;;;;;;10564827;27;20052;-74
2023/11/23 19:34:37;;;;;;;6.97;4.22;;;;;;;;;;10570511;27;20662;-73
2023/11/23 19:39:43;;;;;;;9.48;6.25;;;;;;;;;;10564338;27;20467;-73
2023/11/23 19:44:49;;;;;;;10.02;5.35;;;;;;;;;;10561588;27;20114;-74
2023/11/23 19:49:54;;;;;;;13.65;7.85;;;;;;;;;;10555780;28;20477;-73
2023/11/23 19:54:58;;;;;;;9.15;5.60;;;;;;;;;;10562618;27;20044;-74
2023/11/23 20:00:06;;;;;;;9.05;5.88;;;;;;;;;;10565924;28;20463;-73
2023/11/23 20:05:10;;;;;;;8.23;4.97;;;;;;;;;;10566262;28;20032;-74
2023/11/23 20:10:14;;;;;;;7.05;4.15;;;;;;;;;;10572574;28;20544;-74
2023/11/23 20:15:19;;;;;;;9.40;4.40;;;;;;;;;;10561283;28;20036;-74
2023/11/23 20:20:22;;;;;;;7.57;4.85;;;;;;;;;;10558829;28;20492;-74
2023/11/23 20:25:29;;;;;;;8.43;5.10;;;;;;;;;;10646967;22;20701;-74
2023/11/23 20:30:34;;;;;;;5.63;3.55;;;;;;;;;;10548770;28;20043;-74
2023/11/23 20:35:42;;;;;;;7.03;4.45;;;;;;;;;;10543011;28;20027;-74
2023/11/23 20:41:02;;;;;;;8.23;3.88;;;;;;;;;;10550156;28;20127;-75
2023/11/23 20:47:06;;;;;;;4.78;3.42;;;;;;;;;;10549708;28;20056;-74
2023/11/23 20:52:26;;;;;;;6.78;3.90;;;;;;;;;;10542285;28;20566;-74
2023/11/23 20:57:31;;;;;;;5.45;3.70;;;;;;;;;;10550525;28;20123;-74
2023/11/23 21:47:26;;;;;;;;;;;;;;;;;;;;;
2023/11/23 22:13:51;;;;;;;2.75;2.05;;;;;;;;;;10215972;28;20055;-74
2023/11/23 22:19:32;;;;;;;4.63;2.40;;;;;;;;;;10450849;28;20045;-74
2023/11/23 23:41:56;;;;;;;1.13;0.82;;;;;;;;;;11334243;22;20053;-82
2023/11/23 23:47:00;;;;;;;1.27;1.13;;;;;;;;;;10483454;28;20052;-84
2023/11/23 23:52:04;;;;;;;1.17;0.90;;;;;;;;;;10482310;28;20036;-83
2023/11/23 23:57:09;;;;;;;1.33;1.08;;;;;;;;;;10463192;28;20127;-82
